This is the latest recevied weather packets stored in our database for station/object NUUKSIO. If no packets are shown the sender has not sent any weather packets the latest 10 day(s).
| Time | Temp. | Humidity | Pressure | Rain* | Wind** | Luminosity | Snow |
|---|---|---|---|---|---|---|---|
| 1788300273 | 12.78° C | 100% | 1007.7 hPa | 0 mm | - | - | - |
| 1788299074 | 13.33° C | 100% | 1007.7 hPa | 0 mm | - | - | - |
| 1788297873 | 13.33° C | 100% | 1007.6 hPa | 0 mm | - | - | - |
| 1788296672 | 13.33° C | 100% | 1007.6 hPa | 0 mm | - | - | - |
| 1788294273 | 13.89° C | 100% | 1007.7 hPa | 0 mm | - | - | - |
| 1788290672 | 14.44° C | 100% | 1007.7 hPa | 0 mm | - | - | - |
| 1788289472 | 14.44° C | 100% | 1007.7 hPa | 0 mm | - | - | - |
| 1788288273 | 15° C | 100% | 1007.6 hPa | 0 mm | - | - | - |
| 1788285871 | 15.56° C | 100% | 1007.7 hPa | 0 mm | - | - | - |
| 1788284672 | 15.56° C | 100% | 1007.7 hPa | 0 mm | - | - | - |
| 1788283474 | 16.11° C | 100% | 1007.7 hPa | 0 mm | - | - | - |
| 1788282273 | 16.67° C | 99% | 1007.6 hPa | 0 mm | - | - | - |
| 1788279872 | 17.78° C | 92% | 1007.6 hPa | 0 mm | - | - | - |
| 1788278672 | 18.33° C | 88% | 1007.6 hPa | 0 mm | - | - | - |
| 1788276272 | 18.33° C | 87% | 1007.7 hPa | 0 mm | - | - | - |
| 1788272671 | 18.89° C | 85% | 1007.8 hPa | 0 mm | - | - | - |
| 1788270061 | 18.89° C | 81% | 1007.9 hPa | 0 mm | - | - | - |
| 1788269071 | 18.89° C | 84% | 1007.9 hPa | 0 mm | - | - | - |
| 1788267870 | 18.89° C | 83% | 1008.1 hPa | 0 mm | - | - | - |
| 1788266671 | 18.89° C | 82% | 1008.1 hPa | 0 mm | - | - | - |
| 1788265471 | 19.44° C | 81% | 1008.1 hPa | 0 mm | - | - | - |
| 1788264060 | 18.89° C | 86% | 1008.2 hPa | 0 mm | - | - | - |
| 1788263071 | 18.89° C | 82% | 1008.4 hPa | 0 mm | - | - | - |
| 1788261660 | 18.33° C | 86% | 1008.4 hPa | 0 mm | - | - | - |
| 1788260671 | 18.33° C | 88% | 1008.3 hPa | 0 mm | - | - | - |
* Rain latest hour (hover to see other rain measurements)
** Current wind speed in m/s (hover to see current wind gust speed)